Impacts TAF Board
For situational awareness. Not to be used for flight planning purposes.
IDs:

KPHL - Philadelphia Intl, PA, US

Issued at 2036 UTC 24 Apr 2019
Updated at 2215 UTC 24 Apr 2019
Potential Impact None Slight Moderate High
Time2154Z 24/23Z 25/00Z 25/01Z 25/02Z 25/03Z 25/04Z 25/05Z 25/06Z 25/07Z 25/08Z 25/09Z 25/10Z 25/11Z>>
Type OBS PRVL PRVL PRVL PRVL PRVL PRVL PRVL PRVL PRVL PRVL PRVL PRVL PRVL
VIS 10 >6 >6 >6 >6 >6 >6 >6 >6 >6 >6 >6 >6 >6
CIG -- -- -- -- -- -- 200 200 200 200 200 200 200 200
Cover SCT SCT SCT SCT SCT SCT BKN BKN BKN BKN BKN BKN BKN BKN
FltCat VFR VFR VFR VFR VFR VFR VFR VFR VFR VFR VFR VFR VFR VFR
WX -- -- -- -- -- -- -- -- -- -- -- -- -- --
WDir 280 290 290 290 290 290 30 30 30 30 30 30 30 30
WSpd 12 9 9 9 9 9 5 5 5 5 5 5 5 5
WGst -- -- -- -- -- -- -- -- -- -- -- -- -- --
Raw TAF
KPHL 242036Z 2421/2524 29009KT P6SM SCT250
  FM250400 03005KT P6SM BKN200
  FM251200 12005KT P6SM BKN100
  FM251800 17007KT P6SM VCSH BKN050


Raw METAR
KPHL 242154Z 28012KT 10SM SCT250 23/02 A2982 RMK AO2 SLP096 T02280022
KPHL 242054Z 28013G20KT 10SM SCT250 22/03 A2980 RMK AO2 SLP091 T02220033 55003
KPHL 241954Z 29008KT 10SM FEW280 22/03 A2980 RMK AO2 SLP090 T02220033

METAR Board
Radar Display
Forecast Discussion
For situational awareness. Not to be used for flight planning purposes.